Time;durP1;ratioP1;P1;durP2;ratioP2;P2;SDS_P1;SDS_P2;PMS_P1;PMS_P2;Temp;Humidity;BMP_temperature;BMP_pressure;BME280_temperature;BME280_humidity;BME280_pressure;Samples;Min_cycle;Max_cycle;Signal;HPM_P1;HPM_P2
2021/10/05 00:07:09;;;;;;;1.35;0.50;;;17.30;69.60;;;;;;20740292;28;20076;-78
2021/10/05 00:17:10;;;;;;;2.17;0.60;;;17.20;69.50;;;;;;20755404;28;20034;-79
2021/10/05 00:27:11;;;;;;;0.80;0.50;;;17.20;69.40;;;;;;20738134;28;20042;-79
2021/10/05 00:37:11;;;;;;;1.88;0.52;;;17.30;69.50;;;;;;20591413;28;20166;-79
2021/10/05 00:47:13;;;;;;;1.30;0.47;;;17.20;69.40;;;;;;20576102;28;20061;-79
2021/10/05 00:57:14;;;;;;;2.00;0.60;;;17.20;69.30;;;;;;20591214;28;20057;-78
2021/10/05 01:07:16;;;;;;;1.25;0.50;;;17.20;69.40;;;;;;20573504;28;20129;-78
2021/10/05 01:17:16;;;;;;;0.95;0.52;;;17.10;69.30;;;;;;20574241;28;20035;-79
2021/10/05 01:27:17;;;;;;;0.80;0.50;;;17.10;69.30;;;;;;20572892;28;20053;-78
2021/10/05 01:37:17;;;;;;;1.25;0.70;;;17.10;69.40;;;;;;20589111;28;20030;-79
2021/10/05 01:47:18;;;;;;;1.55;0.40;;;17.10;69.40;;;;;;20588377;28;20039;-80
2021/10/05 01:57:18;;;;;;;0.95;0.50;;;17.20;69.50;;;;;;20586052;28;20074;-80
2021/10/05 02:07:19;;;;;;;0.52;0.30;;;17.10;69.40;;;;;;20569412;28;20118;-79
2021/10/05 02:17:21;;;;;;;0.68;0.50;;;17.10;69.50;;;;;;20569171;28;20078;-78
2021/10/05 02:27:22;;;;;;;0.60;0.38;;;17.10;69.50;;;;;;20584967;28;20535;-79
2021/10/05 02:37:23;;;;;;;0.60;0.40;;;17.10;69.60;;;;;;20601730;28;20069;-79
2021/10/05 02:47:24;;;;;;;1.05;0.55;;;17.10;69.60;;;;;;20647579;28;20034;-79
2021/10/05 02:57:24;;;;;;;2.45;0.70;;;17.10;69.60;;;;;;20647746;28;20389;-79
2021/10/05 03:07:25;;;;;;;0.50;0.47;;;17.10;69.70;;;;;;20646820;28;20292;-79
2021/10/05 03:17:25;;;;;;;1.03;0.47;;;17.10;69.70;;;;;;20646768;28;20038;-79
2021/10/05 03:27:26;;;;;;;0.43;0.38;;;17.10;69.70;;;;;;20665753;28;20344;-80
2021/10/05 03:37:27;;;;;;;0.80;0.50;;;17.10;69.80;;;;;;20660896;28;20030;-81
2021/10/05 03:47:27;;;;;;;3.13;0.52;;;17.10;69.90;;;;;;20663044;28;20038;-82
2021/10/05 03:57:28;;;;;;;0.43;0.30;;;17.00;69.90;;;;;;20660985;28;20121;-78
2021/10/05 04:07:28;;;;;;;1.05;0.52;;;17.00;69.90;;;;;;20659284;28;20042;-78
2021/10/05 04:17:29;;;;;;;0.95;0.52;;;17.10;70.00;;;;;;20657078;28;20097;-76
2021/10/05 04:27:30;;;;;;;0.95;0.57;;;17.00;70.00;;;;;;20672988;28;20046;-78
2021/10/05 04:37:30;;;;;;;0.68;0.50;;;17.00;70.10;;;;;;20672731;28;20444;-80
2021/10/05 04:47:31;;;;;;;1.10;0.40;;;17.00;70.10;;;;;;20688643;28;20493;-80
2021/10/05 04:57:32;;;;;;;1.30;0.70;;;17.00;70.10;;;;;;20691477;28;20542;-79
2021/10/05 05:07:33;;;;;;;0.53;0.47;;;17.00;70.20;;;;;;20654760;28;20034;-81
2021/10/05 05:17:34;;;;;;;1.48;0.57;;;17.00;70.20;;;;;;20665050;28;20317;-78
2021/10/05 05:27:34;;;;;;;0.68;0.55;;;17.00;70.30;;;;;;20681346;28;20492;-84
2021/10/05 05:37:35;;;;;;;1.45;0.70;;;17.00;70.30;;;;;;20668227;28;20030;-75
2021/10/05 05:47:36;;;;;;;1.00;0.47;;;17.00;70.40;;;;;;20669975;28;20137;-83
2021/10/05 05:57:36;;;;;;;2.25;0.70;;;17.00;70.40;;;;;;20669914;28;20038;-84
2021/10/05 06:07:37;;;;;;;0.52;0.40;;;17.00;70.50;;;;;;20653320;28;20045;-83
2021/10/05 06:17:41;;;;;;;1.50;0.60;;;16.90;70.40;;;;;;20668731;28;20034;-82
2021/10/05 06:27:42;;;;;;;1.25;0.60;;;16.90;70.50;;;;;;20666263;28;20035;-82
2021/10/05 06:37:42;;;;;;;0.73;0.52;;;16.90;70.50;;;;;;20662576;28;20504;-82
2021/10/05 06:47:43;;;;;;;1.05;0.55;;;16.90;70.60;;;;;;20664623;28;20137;-82
2021/10/05 06:57:44;;;;;;;0.77;0.40;;;17.00;70.70;;;;;;20646958;28;20062;-83
2021/10/05 07:07:46;;;;;;;0.47;0.40;;;16.90;70.70;;;;;;20676737;28;20034;-82
2021/10/05 07:17:51;;;;;;;0.93;0.60;;;16.90;70.60;;;;;;20676349;28;20046;-81
2021/10/05 07:27:52;;;;;;;0.85;0.57;;;16.90;70.70;;;;;;20660760;28;20035;-82
2021/10/05 07:37:53;;;;;;;0.82;0.50;;;16.90;70.70;;;;;;20661826;28;20034;-83
2021/10/05 07:47:53;;;;;;;1.48;0.60;;;16.90;70.70;;;;;;20660172;28;20396;-83
2021/10/05 07:57:54;;;;;;;0.85;0.50;;;16.90;70.80;;;;;;20659371;28;20504;-81
2021/10/05 08:08:08;;;;;;;0.47;0.40;;;16.90;70.80;;;;;;20657742;28;20408;-81
2021/10/05 08:18:09;;;;;;;1.65;0.90;;;16.90;70.80;;;;;;20655447;28;20073;-80
2021/10/05 08:28:10;;;;;;;0.60;0.52;;;16.90;70.80;;;;;;20670744;28;20477;-80
2021/10/05 08:38:11;;;;;;;1.05;0.57;;;16.90;70.80;;;;;;20670336;28;20473;-80
2021/10/05 08:48:11;;;;;;;0.75;0.63;;;16.90;70.80;;;;;;20655615;28;20049;-81
2021/10/05 08:58:12;;;;;;;0.77;0.30;;;16.90;70.90;;;;;;20657083;28;20073;-81
2021/10/05 09:08:20;;;;;;;1.50;0.50;;;16.90;70.90;;;;;;20673448;28;20045;-81
2021/10/05 09:18:21;;;;;;;1.42;0.73;;;16.90;70.90;;;;;;20670702;28;20050;-81
2021/10/05 09:28:27;;;;;;;0.75;0.50;;;16.90;71.00;;;;;;20654239;28;20046;-83
2021/10/05 09:38:29;;;;;;;0.88;0.60;;;16.90;70.90;;;;;;20654817;28;20453;-83
2021/10/05 09:48:30;;;;;;;0.50;0.38;;;16.80;70.90;;;;;;20652201;28;20034;-77
2021/10/05 09:58:30;;;;;;;0.68;0.45;;;16.90;71.00;;;;;;20649932;28;20038;-83
2021/10/05 10:08:33;;;;;;;5.30;0.40;;;16.80;70.90;;;;;;20723895;28;20046;-81
2021/10/05 10:18:34;;;;;;;0.45;0.40;;;16.80;70.90;;;;;;20745780;28;20339;-78
2021/10/05 10:28:37;;;;;;;0.30;0.30;;;16.80;70.90;;;;;;21135550;22;20023;-81
2021/10/05 10:38:42;;;;;;;1.45;0.50;;;16.90;71.00;;;;;;20733357;28;20456;-82
2021/10/05 10:48:52;;;;;;;1.23;0.55;;;16.90;71.00;;;;;;20711446;28;20091;-78
2021/10/05 10:59:00;;;;;;;0.50;0.30;;;16.80;71.00;;;;;;20655945;28;20038;-80
2021/10/05 11:09:01;;;;;;;0.35;0.30;;;16.80;71.00;;;;;;20615648;28;20105;-77
2021/10/05 11:19:14;;;;;;;0.57;0.43;;;16.80;71.00;;;;;;20630242;28;20089;-80
2021/10/05 11:29:27;;;;;;;0.40;0.30;;;16.90;71.10;;;;;;20687645;28;20046;-80
2021/10/05 11:39:28;;;;;;;1.13;0.50;;;16.80;71.10;;;;;;20710087;28;20041;-82
2021/10/05 11:49:33;;;;;;;0.17;0.17;;;16.90;71.20;;;;;;20720319;28;20022;-81
2021/10/05 11:59:34;;;;;;;0.90;0.70;;;16.80;71.10;;;;;;20704607;28;20045;-80
2021/10/05 12:09:35;;;;;;;0.43;0.30;;;16.80;71.20;;;;;;20724203;28;20039;-81
2021/10/05 12:19:59;;;;;;;1.10;0.50;;;16.80;71.20;;;;;;20722807;28;20057;-81
2021/10/05 12:30:02;;;;;;;0.60;0.38;;;16.80;71.20;;;;;;20742112;28;20587;-80
2021/10/05 12:40:06;;;;;;;0.70;0.50;;;16.80;71.20;;;;;;20756435;28;20103;-76
2021/10/05 12:50:07;;;;;;;0.30;0.30;;;16.80;71.30;;;;;;20738066;28;20570;-78
2021/10/05 13:00:08;;;;;;;0.90;0.63;;;16.80;71.30;;;;;;20737527;28;20128;-78
2021/10/05 13:10:10;;;;;;;1.00;0.50;;;16.80;71.30;;;;;;20736621;28;20034;-78
2021/10/05 13:20:12;;;;;;;0.82;0.45;;;16.80;71.30;;;;;;20736929;28;20599;-82
2021/10/05 13:30:12;;;;;;;0.50;0.50;;;16.80;71.40;;;;;;20735193;28;20045;-80
2021/10/05 13:40:13;;;;;;;0.22;0.22;;;16.90;71.50;;;;;;20734983;28;20050;-79
2021/10/05 13:50:13;;;;;;;0.90;0.60;;;16.80;71.50;;;;;;20733640;28;20103;-80
2021/10/05 14:00:14;;;;;;;0.60;0.50;;;16.80;71.50;;;;;;20731731;28;20076;-78
2021/10/05 14:10:15;;;;;;;0.40;0.40;;;16.80;72.20;;;;;;20732264;28;20467;-81
2021/10/05 14:20:15;;;;;;;0.75;0.45;;;16.80;71.60;;;;;;20716828;28;20037;-80
2021/10/05 14:30:16;;;;;;;0.80;0.43;;;16.80;71.60;;;;;;20726706;28;20049;-84
2021/10/05 14:40:17;;;;;;;0.60;0.50;;;16.80;71.70;;;;;;20714350;28;20507;-81
2021/10/05 14:50:20;;;;;;;7.07;0.88;;;16.80;71.70;;;;;;20712819;28;20049;-82
2021/10/05 15:00:21;;;;;;;2.72;0.90;;;16.90;71.70;;;;;;20711978;28;20050;-84
2021/10/05 15:10:21;;;;;;;15.40;1.42;;;17.00;71.70;;;;;;20694005;28;20030;-81
2021/10/05 15:20:22;;;;;;;2.88;0.70;;;17.60;71.70;;;;;;20693022;28;20088;-77
2021/10/05 15:30:22;;;;;;;3.93;0.70;;;20.10;64.50;;;;;;20723944;28;20041;-80
2021/10/05 15:40:24;;;;;;;3.70;1.00;;;22.50;58.00;;;;;;20691734;28;20375;-81
2021/10/05 15:50:26;;;;;;;4.50;0.90;;;24.00;53.80;;;;;;20663543;28;20040;-82
2021/10/05 16:00:29;;;;;;;4.47;1.20;;;23.70;53.20;;;;;;20670856;28;20038;-82
2021/10/05 16:10:29;;;;;;;1.77;1.05;;;22.60;54.90;;;;;;20688538;28;20546;-81
2021/10/05 16:20:30;;;;;;;3.53;1.02;;;21.50;57.20;;;;;;20675641;28;20030;-82
2021/10/05 16:30:30;;;;;;;4.97;0.98;;;20.50;59.40;;;;;;20656415;28;20034;-81
2021/10/05 16:40:31;;;;;;;2.72;1.05;;;19.80;61.40;;;;;;20652800;28;20110;-80
2021/10/05 16:50:34;;;;;;;1.63;0.95;;;19.20;63.00;;;;;;20671087;28;20026;-75
2021/10/05 17:00:35;;;;;;;2.03;1.00;;;18.80;64.40;;;;;;20653016;28;20595;-75
2021/10/05 17:10:39;;;;;;;5.32;1.60;;;18.50;65.70;;;;;;20650302;28;20086;-75
2021/10/05 17:20:39;;;;;;;1.42;0.90;;;18.20;66.50;;;;;;20641922;28;20092;-78
2021/10/05 17:30:40;;;;;;;1.25;0.70;;;17.90;67.30;;;;;;20619343;28;20133;-81
2021/10/05 17:40:40;;;;;;;1.90;0.80;;;17.80;68.00;;;;;;20707049;28;20046;-78
2021/10/05 17:50:43;;;;;;;0.85;0.80;;;17.70;68.50;;;;;;20720595;28;20050;-77
2021/10/05 18:00:43;;;;;;;1.75;1.17;;;17.50;68.90;;;;;;20691356;28;20034;-77
2021/10/05 18:10:46;;;;;;;3.03;1.70;;;17.50;69.40;;;;;;20696172;28;20104;-77
2021/10/05 18:20:48;;;;;;;2.30;1.50;;;17.40;69.60;;;;;;20644708;28;20403;-78
2021/10/05 18:30:49;;;;;;;2.95;2.00;;;17.30;69.90;;;;;;20647612;28;20074;-77
2021/10/05 18:40:53;;;;;;;2.63;1.55;;;17.30;70.10;;;;;;20691862;28;20136;-77
2021/10/05 18:50:54;;;;;;;3.80;1.52;;;17.30;70.30;;;;;;20736077;28;20080;-77
2021/10/05 19:00:54;;;;;;;2.45;1.33;;;17.20;70.40;;;;;;20722468;28;20041;-77
2021/10/05 19:10:55;;;;;;;2.15;1.58;;;17.10;70.50;;;;;;20716122;28;20030;-76
2021/10/05 19:20:56;;;;;;;3.65;1.60;;;17.10;70.50;;;;;;20691457;28;20042;-76
2021/10/05 19:30:57;;;;;;;4.10;1.60;;;17.10;70.60;;;;;;20667058;28;20107;-77
2021/10/05 19:40:59;;;;;;;3.83;2.03;;;17.10;70.70;;;;;;20641389;28;20097;-77
2021/10/05 19:51:00;;;;;;;1.83;1.17;;;17.10;70.80;;;;;;20623999;28;20034;-76
2021/10/05 20:01:01;;;;;;;2.38;1.60;;;17.00;70.70;;;;;;20734670;28;20065;-77
2021/10/05 20:11:01;;;;;;;2.47;1.60;;;17.00;70.80;;;;;;20709528;28;20040;-76
2021/10/05 20:21:02;;;;;;;3.37;1.73;;;17.00;70.70;;;;;;20636144;28;20301;-76
2021/10/05 20:31:03;;;;;;;2.58;2.10;;;17.00;70.60;;;;;;20669515;28;20763;-75
2021/10/05 20:41:03;;;;;;;3.63;2.03;;;17.10;70.60;;;;;;20706571;28;20096;-82
2021/10/05 20:51:04;;;;;;;2.90;1.65;;;17.00;70.60;;;;;;20716392;28;20037;-79
2021/10/05 21:01:05;;;;;;;2.40;1.63;;;17.10;70.60;;;;;;20711472;28;20037;-79
2021/10/05 21:11:05;;;;;;;4.13;1.77;;;17.10;70.60;;;;;;20729605;28;20407;-79
2021/10/05 21:21:06;;;;;;;3.08;1.60;;;17.10;70.50;;;;;;20730081;28;20045;-79
2021/10/05 21:31:07;;;;;;;2.42;1.48;;;17.10;70.60;;;;;;20713881;28;20127;-79
2021/10/05 21:41:07;;;;;;;3.72;1.55;;;17.10;70.50;;;;;;20745679;28;20125;-79
2021/10/05 21:51:08;;;;;;;1.73;1.38;;;17.10;70.50;;;;;;20729225;28;20026;-79
2021/10/05 22:01:09;;;;;;;2.05;1.38;;;17.10;70.50;;;;;;20727883;28;20126;-79
2021/10/05 22:11:09;;;;;;;2.33;1.57;;;17.10;70.60;;;;;;20711347;28;20670;-79
2021/10/05 22:21:10;;;;;;;3.07;1.37;;;17.10;70.50;;;;;;20726344;28;20301;-79
2021/10/05 22:31:12;;;;;;;1.50;1.15;;;17.10;70.60;;;;;;20709255;28;20281;-79
2021/10/05 22:41:13;;;;;;;2.42;1.48;;;17.00;70.60;;;;;;20726539;28;20046;-79
2021/10/05 22:51:13;;;;;;;1.90;1.23;;;17.00;70.60;;;;;;20741588;28;20141;-79
2021/10/05 23:01:14;;;;;;;1.60;1.27;;;17.00;70.60;;;;;;20722548;28;20041;-78
2021/10/05 23:11:14;;;;;;;1.70;1.27;;;17.00;70.60;;;;;;20707955;28;20033;-79
2021/10/05 23:21:15;;;;;;;1.73;1.20;;;17.00;70.70;;;;;;20723713;28;20161;-79
2021/10/05 23:31:16;;;;;;;1.65;1.10;;;17.00;70.70;;;;;;20708103;28;20072;-82
2021/10/05 23:41:16;;;;;;;1.70;1.13;;;17.00;70.70;;;;;;20723101;28;20037;-80
2021/10/05 23:51:17;;;;;;;1.95;1.20;;;17.00;70.70;;;;;;20721610;28;20030;-80
